createdAt,value
2023-02-19T00:01:45.136Z,3.30
2023-02-19T00:04:14.706Z,3.13
2023-02-19T00:06:43.004Z,3.27
2023-02-19T00:09:11.396Z,3.17
2023-02-19T00:11:39.495Z,3.60
2023-02-19T00:14:07.687Z,3.27
2023-02-19T00:16:38.898Z,3.43
2023-02-19T00:19:07.816Z,3.33
2023-02-19T00:21:35.927Z,3.30
2023-02-19T00:24:05.107Z,3.23
2023-02-19T00:26:33.302Z,3.20
2023-02-19T00:29:01.850Z,2.87
2023-02-19T00:31:32.798Z,3.00
2023-02-19T00:34:03.895Z,3.87
2023-02-19T00:36:32.089Z,3.60
2023-02-19T00:39:00.228Z,3.30
2023-02-19T00:41:29.021Z,3.57
2023-02-19T00:43:57.932Z,3.37
2023-02-19T00:46:27.581Z,3.50
2023-02-19T00:48:56.287Z,3.57
2023-02-19T00:51:26.681Z,3.30
2023-02-19T00:53:54.749Z,3.37
2023-02-19T00:56:22.898Z,3.90
2023-02-19T00:58:51.378Z,3.30
2023-02-19T01:01:19.668Z,3.90
2023-02-19T01:03:47.829Z,3.80
2023-02-19T01:06:16.893Z,3.60
2023-02-19T01:08:46.534Z,3.73
2023-02-19T01:11:15.162Z,3.63
2023-02-19T01:13:43.682Z,4.00
2023-02-19T01:16:14.056Z,4.00
2023-02-19T01:18:42.221Z,4.70
2023-02-19T01:21:11.407Z,4.23
2023-02-19T01:23:40.359Z,4.60
2023-02-19T01:26:12.772Z,4.90
2023-02-19T01:28:40.829Z,3.97
2023-02-19T01:31:11.579Z,4.70
2023-02-19T01:33:39.827Z,4.73
2023-02-19T01:36:08.343Z,5.50
2023-02-19T01:38:36.451Z,4.73
2023-02-19T01:41:06.480Z,5.43
2023-02-19T01:43:36.431Z,5.50
2023-02-19T01:46:04.665Z,4.73
2023-02-19T01:48:33.671Z,5.13
2023-02-19T01:51:05.014Z,5.23
2023-02-19T01:53:34.963Z,5.73
2023-02-19T01:56:03.070Z,5.53
2023-02-19T01:58:33.455Z,5.20
2023-02-19T02:01:04.651Z,5.73
2023-02-19T02:03:32.814Z,5.03
2023-02-19T02:06:03.386Z,4.93
2023-02-19T02:08:49.017Z,5.00
2023-02-19T02:11:17.128Z,4.70
2023-02-19T02:13:45.262Z,5.03
2023-02-19T02:16:24.017Z,4.90
2023-02-19T02:19:00.886Z,4.60
2023-02-19T02:21:53.507Z,4.47
2023-02-19T02:25:13.751Z,4.70
2023-02-19T02:27:54.682Z,4.33
2023-02-19T02:30:34.636Z,4.30
2023-02-19T02:33:06.105Z,4.53
2023-02-19T02:35:39.083Z,4.73
2023-02-19T02:38:09.177Z,4.37
2023-02-19T02:40:37.242Z,4.60
2023-02-19T02:43:05.707Z,4.43
2023-02-19T02:45:40.091Z,4.60
2023-02-19T02:48:33.204Z,4.83
2023-02-19T02:51:02.875Z,4.90
2023-02-19T02:53:55.167Z,5.17
2023-02-19T02:56:23.305Z,5.10
2023-02-19T02:58:52.192Z,5.43
2023-02-19T03:01:41.428Z,5.20
2023-02-19T03:04:11.208Z,5.23
2023-02-19T03:06:39.472Z,4.97
2023-02-19T03:09:11.231Z,5.77
2023-02-19T03:11:58.197Z,5.27
2023-02-19T03:14:45.908Z,6.00
2023-02-19T03:17:36.050Z,5.97
2023-02-19T03:20:06.069Z,5.87
2023-02-19T03:22:36.353Z,5.37
2023-02-19T03:25:23.836Z,6.17
2023-02-19T03:27:52.017Z,6.30
2023-02-19T03:30:21.627Z,7.07
2023-02-19T03:32:53.301Z,6.97
2023-02-19T03:35:22.616Z,7.90
2023-02-19T03:37:55.787Z,7.43
2023-02-19T03:40:24.197Z,7.57
2023-02-19T03:42:56.566Z,7.47
2023-02-19T03:45:38.705Z,7.90
2023-02-19T03:48:25.817Z,7.23
2023-02-19T03:50:59.764Z,7.17
2023-02-19T03:53:29.868Z,7.20
2023-02-19T03:56:07.192Z,7.63
2023-02-19T03:58:41.731Z,6.90
2023-02-19T04:01:12.739Z,6.60
2023-02-19T04:03:43.304Z,7.20
2023-02-19T04:06:15.004Z,6.10
2023-02-19T04:08:46.122Z,6.50
2023-02-19T04:11:14.338Z,6.00
2023-02-19T04:13:44.506Z,5.87
2023-02-19T04:16:14.564Z,6.00
2023-02-19T04:18:44.008Z,5.87
2023-02-19T04:21:12.538Z,5.17
2023-02-19T04:23:41.893Z,5.97
2023-02-19T04:26:10.071Z,5.63
2023-02-19T04:28:38.755Z,5.70
2023-02-19T04:31:07.327Z,5.63
2023-02-19T04:33:35.449Z,5.50
2023-02-19T04:36:05.644Z,5.87
2023-02-19T04:38:33.748Z,5.63
2023-02-19T04:41:01.781Z,4.80
2023-02-19T04:43:29.855Z,5.50
2023-02-19T04:46:01.183Z,5.97
2023-02-19T04:48:29.744Z,5.10
2023-02-19T04:50:57.836Z,5.17
2023-02-19T04:53:27.335Z,5.33
2023-02-19T04:55:55.443Z,4.83
2023-02-19T04:58:23.526Z,4.87
2023-02-19T05:00:53.336Z,5.43
2023-02-19T05:03:21.704Z,5.23
2023-02-19T05:05:49.782Z,5.07
2023-02-19T05:08:17.938Z,5.10
2023-02-19T05:10:47.421Z,5.40
2023-02-19T05:13:15.503Z,5.30
2023-02-19T05:15:43.871Z,4.97
2023-02-19T05:18:11.961Z,4.70
2023-02-19T05:20:40.033Z,5.03
2023-02-19T05:23:08.120Z,5.10
2023-02-19T05:25:36.248Z,4.43
2023-02-19T05:28:18.295Z,4.53
2023-02-19T05:30:46.667Z,4.57
2023-02-19T05:33:14.931Z,4.60
2023-02-19T05:35:43.912Z,4.27
2023-02-19T05:38:12.078Z,4.80
2023-02-19T05:40:40.248Z,4.40
2023-02-19T05:43:10.113Z,4.57
2023-02-19T05:45:38.320Z,4.17
2023-02-19T05:48:06.651Z,4.37
2023-02-19T05:50:38.255Z,3.97
2023-02-19T05:53:13.422Z,4.40
2023-02-19T05:55:41.805Z,4.13
2023-02-19T05:58:11.228Z,4.37
2023-02-19T06:00:39.288Z,4.47
2023-02-19T06:03:07.360Z,4.40
2023-02-19T06:05:35.442Z,4.20
2023-02-19T06:08:03.809Z,3.70
2023-02-19T06:10:31.902Z,4.20
2023-02-19T06:13:00.050Z,4.03
2023-02-19T06:15:29.571Z,4.23
2023-02-19T06:17:57.636Z,4.27
2023-02-19T06:20:26.381Z,4.07
2023-02-19T06:22:54.832Z,4.27
2023-02-19T06:25:23.037Z,4.20
2023-02-19T06:27:51.147Z,3.70
2023-02-19T06:30:19.442Z,3.70
2023-02-19T06:32:48.886Z,4.83
2023-02-19T06:35:17.121Z,4.10
2023-02-19T06:37:47.799Z,3.63
2023-02-19T06:40:15.925Z,4.83
2023-02-19T06:42:43.966Z,4.00
2023-02-19T06:45:12.047Z,4.17
2023-02-19T06:47:40.130Z,4.00
2023-02-19T06:50:10.042Z,4.30
2023-02-19T06:52:38.143Z,3.63
2023-02-19T06:55:06.765Z,3.50
2023-02-19T06:57:34.832Z,3.57
2023-02-19T07:00:04.175Z,3.27
2023-02-19T07:02:32.233Z,3.47
2023-02-19T07:05:00.633Z,3.60
2023-02-19T07:07:30.096Z,2.67
2023-02-19T07:09:58.183Z,1.70
2023-02-19T07:12:26.288Z,1.70
2023-02-19T07:14:54.367Z,2.37
2023-02-19T07:17:22.443Z,2.07
2023-02-19T07:19:50.830Z,2.20
2023-02-19T07:22:18.897Z,2.63
2023-02-19T07:24:48.432Z,1.73
2023-02-19T07:27:16.573Z,1.73
2023-02-19T07:29:44.628Z,2.40
2023-02-19T07:32:13.079Z,2.30
2023-02-19T07:34:41.137Z,1.67
2023-02-19T07:37:09.262Z,1.73
2023-02-19T07:39:37.361Z,1.30
2023-02-19T07:42:07.188Z,1.60
2023-02-19T07:44:35.572Z,1.70
2023-02-19T07:47:03.655Z,2.20
2023-02-19T07:49:32.949Z,2.30
2023-02-19T07:52:00.983Z,2.37
2023-02-19T07:54:29.292Z,2.00
2023-02-19T07:56:57.331Z,2.10
2023-02-19T07:59:27.159Z,2.10
2023-02-19T08:02:09.075Z,2.00
2023-02-19T08:04:37.158Z,2.87
2023-02-19T08:07:05.463Z,3.70
2023-02-19T08:09:33.633Z,2.67
2023-02-19T08:12:19.778Z,2.70
2023-02-19T08:14:49.244Z,2.80
2023-02-19T08:17:18.542Z,1.77
2023-02-19T08:19:46.660Z,1.80
2023-02-19T08:22:16.362Z,1.57
2023-02-19T08:24:45.135Z,1.63
2023-02-19T08:27:13.215Z,2.00
2023-02-19T08:29:41.322Z,1.70
2023-02-19T08:32:10.791Z,1.90
2023-02-19T08:34:39.114Z,1.90
2023-02-19T08:37:07.168Z,1.80
2023-02-19T08:39:35.547Z,1.57
2023-02-19T08:42:03.612Z,1.80
2023-02-19T08:44:31.680Z,1.73
2023-02-19T08:46:59.758Z,1.57
2023-02-19T08:49:31.979Z,1.80
2023-02-19T08:52:00.056Z,1.80
2023-02-19T08:54:28.684Z,1.50
2023-02-19T08:56:56.894Z,1.63
2023-02-19T08:59:25.110Z,1.67
2023-02-19T09:01:53.529Z,1.80
2023-02-19T09:04:21.739Z,1.80
2023-02-19T09:06:51.674Z,1.80
2023-02-19T09:09:19.796Z,2.00
2023-02-19T09:11:49.315Z,1.80
2023-02-19T09:14:17.524Z,1.90
2023-02-19T09:16:45.685Z,2.10
2023-02-19T09:19:13.794Z,2.13
2023-02-19T09:21:42.900Z,2.03
2023-02-19T09:24:12.440Z,1.83
2023-02-19T09:26:40.557Z,1.57
2023-02-19T09:29:08.650Z,2.20
2023-02-19T09:31:36.873Z,2.30
2023-02-19T09:34:05.391Z,2.40
2023-02-19T09:36:34.256Z,1.93
2023-02-19T09:39:02.367Z,2.00
2023-02-19T09:41:32.873Z,2.40
2023-02-19T09:44:01.908Z,2.20
2023-02-19T09:46:32.146Z,2.90
2023-02-19T09:49:04.592Z,2.37
2023-02-19T09:51:32.930Z,2.10
2023-02-19T09:54:01.070Z,3.03
2023-02-19T09:56:29.167Z,3.00
2023-02-19T09:58:59.294Z,4.20
2023-02-19T10:01:29.441Z,2.90
2023-02-19T10:03:57.569Z,2.63
2023-02-19T10:06:26.663Z,1.57
2023-02-19T10:08:56.638Z,1.03
2023-02-19T10:11:24.961Z,1.57
2023-02-19T10:14:09.338Z,1.30
2023-02-19T10:16:37.711Z,1.23
2023-02-19T10:19:05.791Z,1.17
2023-02-19T10:21:33.822Z,1.60
2023-02-19T10:24:02.786Z,1.33
2023-02-19T10:26:34.779Z,1.37
2023-02-19T10:29:02.923Z,1.50
2023-02-19T10:31:33.419Z,1.60
2023-02-19T10:34:02.389Z,1.63
2023-02-19T10:36:32.260Z,1.27
2023-02-19T10:39:00.861Z,1.27
2023-02-19T10:41:29.249Z,1.50
2023-02-19T10:43:59.605Z,1.70
2023-02-19T10:46:28.843Z,1.50
2023-02-19T10:48:59.271Z,1.60
2023-02-19T10:51:32.344Z,1.60
2023-02-19T10:54:07.755Z,1.60
2023-02-19T10:56:38.639Z,1.70
2023-02-19T10:59:25.418Z,1.70
2023-02-19T11:02:00.818Z,1.63
2023-02-19T11:04:34.080Z,1.93
2023-02-19T11:07:09.560Z,2.30
2023-02-19T11:09:39.276Z,2.57
2023-02-19T11:12:09.539Z,2.27
2023-02-19T11:14:37.824Z,2.60
2023-02-19T11:17:05.948Z,2.70
2023-02-19T11:19:37.823Z,2.40
2023-02-19T11:22:20.614Z,2.60
2023-02-19T11:24:49.783Z,3.20
2023-02-19T11:27:20.015Z,2.90
2023-02-19T11:29:48.276Z,2.87
2023-02-19T11:32:29.337Z,3.20
2023-02-19T11:35:19.096Z,3.10
2023-02-19T11:37:57.938Z,3.10
2023-02-19T11:40:34.346Z,3.37
2023-02-19T11:43:06.400Z,3.17
2023-02-19T11:45:38.391Z,3.00
2023-02-19T11:48:16.145Z,3.33
2023-02-19T11:50:54.386Z,3.43
2023-02-19T11:53:26.261Z,3.53
2023-02-19T11:56:03.871Z,2.73
2023-02-19T11:58:43.177Z,2.27
2023-02-19T12:01:16.013Z,2.10
2023-02-19T12:03:58.630Z,1.70
2023-02-19T12:06:30.567Z,1.70
2023-02-19T12:09:11.335Z,1.67
2023-02-19T12:11:53.617Z,1.40
2023-02-19T12:14:48.989Z,1.50
2023-02-19T12:17:20.721Z,1.53
2023-02-19T12:19:57.444Z,1.50
2023-02-19T12:22:31.017Z,1.53
2023-02-19T12:25:29.909Z,1.60
2023-02-19T12:28:17.556Z,1.80
2023-02-19T12:31:14.495Z,1.57
2023-02-19T12:33:52.522Z,1.90
2023-02-19T12:36:23.180Z,2.30
2023-02-19T12:38:56.177Z,2.30
2023-02-19T12:41:31.830Z,2.07
2023-02-19T12:44:01.599Z,1.77
2023-02-19T12:46:33.120Z,1.60
2023-02-19T12:49:04.046Z,1.83
2023-02-19T12:51:34.316Z,2.00
2023-02-19T12:54:06.078Z,2.10
2023-02-19T12:56:35.708Z,2.03
2023-02-19T12:59:05.735Z,1.90
2023-02-19T13:01:35.706Z,1.83
2023-02-19T13:04:17.345Z,1.80
2023-02-19T13:06:47.787Z,1.77
2023-02-19T13:09:19.997Z,2.10
2023-02-19T13:11:50.260Z,2.07
2023-02-19T13:14:22.515Z,1.87
2023-02-19T13:17:02.621Z,2.20
2023-02-19T13:19:31.006Z,2.10
2023-02-19T13:22:21.637Z,2.30
2023-02-19T13:24:51.145Z,2.80
2023-02-19T13:27:57.911Z,2.90
2023-02-19T13:30:34.121Z,2.63
2023-02-19T13:33:13.371Z,2.67
2023-02-19T13:36:07.108Z,2.83
2023-02-19T13:38:38.054Z,2.83
2023-02-19T13:41:07.836Z,3.07
2023-02-19T13:43:37.848Z,2.80
2023-02-19T13:46:07.788Z,2.80
2023-02-19T13:48:36.347Z,2.80
2023-02-19T13:51:51.132Z,3.33
2023-02-19T13:54:26.971Z,6.20
2023-02-19T13:57:30.107Z,5.43
2023-02-19T13:59:58.364Z,7.03
2023-02-19T14:02:32.449Z,7.10
2023-02-19T14:05:02.039Z,4.03
2023-02-19T14:08:03.709Z,3.33
2023-02-19T14:11:02.271Z,3.50
2023-02-19T14:14:11.124Z,3.60
2023-02-19T14:16:58.258Z,4.87
2023-02-19T14:19:49.540Z,5.00
2023-02-19T14:23:01.637Z,5.50
2023-02-19T14:25:32.826Z,4.83
2023-02-19T14:28:02.601Z,4.67
2023-02-19T14:30:30.854Z,3.40
2023-02-19T14:33:10.152Z,3.57
2023-02-19T14:35:41.041Z,4.40
2023-02-19T14:38:11.928Z,3.57
2023-02-19T14:40:41.715Z,3.50
2023-02-19T14:43:12.707Z,4.50
2023-02-19T14:45:43.138Z,3.77
2023-02-19T14:48:18.436Z,4.03
2023-02-19T14:50:48.712Z,4.00
2023-02-19T14:53:17.276Z,3.87
2023-02-19T14:55:45.585Z,3.80
2023-02-19T14:58:15.158Z,3.63
2023-02-19T15:00:44.032Z,3.93
2023-02-19T15:03:27.852Z,3.97
2023-02-19T15:05:56.902Z,3.50
2023-02-19T15:08:28.373Z,3.80
2023-02-19T15:10:56.977Z,3.03
2023-02-19T15:13:26.823Z,3.27
2023-02-19T15:15:55.397Z,3.20
2023-02-19T15:18:24.799Z,3.20
2023-02-19T15:21:00.295Z,3.03
2023-02-19T15:23:30.437Z,3.03
2023-02-19T15:25:58.995Z,2.90
2023-02-19T15:28:32.516Z,3.20
2023-02-19T15:31:15.705Z,2.53
2023-02-19T15:33:51.533Z,2.83
2023-02-19T15:36:26.319Z,2.60
2023-02-19T15:38:55.988Z,2.53
2023-02-19T15:41:25.258Z,2.47
2023-02-19T15:43:55.044Z,3.07
2023-02-19T15:46:23.802Z,4.73
2023-02-19T15:48:54.626Z,4.37
2023-02-19T15:51:26.136Z,5.20
2023-02-19T15:53:56.580Z,8.33
2023-02-19T15:56:28.378Z,7.13
2023-02-19T15:58:58.038Z,4.90
2023-02-19T16:01:27.221Z,3.67
2023-02-19T16:03:55.519Z,2.50
2023-02-19T16:06:25.592Z,3.00
2023-02-19T16:09:02.064Z,2.53
2023-02-19T16:11:31.733Z,2.77
2023-02-19T16:14:25.572Z,2.80
2023-02-19T16:16:54.775Z,2.90
2023-02-19T16:19:24.501Z,2.80
2023-02-19T16:21:54.050Z,2.40
2023-02-19T16:24:28.221Z,2.60
2023-02-19T16:26:56.516Z,2.60
2023-02-19T16:29:25.902Z,2.67
2023-02-19T16:31:56.285Z,2.70
2023-02-19T16:34:35.369Z,3.37
2023-02-19T16:37:06.354Z,3.73
2023-02-19T16:39:34.587Z,3.90
2023-02-19T16:42:17.548Z,3.70
2023-02-19T16:44:46.497Z,3.60
2023-02-19T16:47:41.878Z,3.60
2023-02-19T16:50:13.957Z,3.60
2023-02-19T16:52:54.235Z,3.27
2023-02-19T16:55:22.465Z,3.50
2023-02-19T16:57:50.584Z,3.37
2023-02-19T17:00:19.825Z,3.60
2023-02-19T17:02:48.323Z,3.17
2023-02-19T17:05:16.803Z,4.17
2023-02-19T17:07:44.877Z,3.13
2023-02-19T17:10:17.301Z,3.17
2023-02-19T17:12:45.435Z,3.60
2023-02-19T17:15:13.753Z,3.57
2023-02-19T17:17:42.156Z,3.87
2023-02-19T17:20:19.338Z,4.17
2023-02-19T17:22:47.569Z,4.03
2023-02-19T17:25:17.176Z,4.70
2023-02-19T17:27:45.308Z,3.87
2023-02-19T17:30:14.238Z,4.17
2023-02-19T17:32:42.670Z,3.87
2023-02-19T17:35:10.885Z,3.70
2023-02-19T17:37:39.029Z,3.97
2023-02-19T17:40:10.716Z,3.90
2023-02-19T17:42:40.263Z,3.97
2023-02-19T17:45:09.494Z,4.20
2023-02-19T17:47:37.648Z,4.13
2023-02-19T17:50:06.968Z,3.80
2023-02-19T17:52:35.022Z,3.63
2023-02-19T17:55:03.101Z,4.03
2023-02-19T17:57:33.839Z,3.83
2023-02-19T18:00:04.769Z,3.43
2023-02-19T18:02:40.682Z,3.57
2023-02-19T18:05:09.262Z,3.07
2023-02-19T18:07:38.470Z,3.70
2023-02-19T18:10:08.150Z,3.47
2023-02-19T18:12:36.303Z,4.00
2023-02-19T18:15:07.548Z,3.40
2023-02-19T18:17:35.724Z,3.80
2023-02-19T18:20:04.808Z,3.60
2023-02-19T18:22:33.242Z,3.73
2023-02-19T18:25:01.346Z,4.13
2023-02-19T18:27:29.420Z,3.53
2023-02-19T18:29:57.696Z,4.77
2023-02-19T18:32:27.468Z,3.60
2023-02-19T18:34:56.722Z,3.23
2023-02-19T18:37:25.478Z,2.87
2023-02-19T18:39:53.700Z,3.00
2023-02-19T18:42:22.751Z,2.97
2023-02-19T18:44:51.061Z,3.13
2023-02-19T18:47:19.282Z,2.80
2023-02-19T18:49:48.903Z,3.40
2023-02-19T18:52:20.253Z,3.20
2023-02-19T18:54:48.749Z,3.00
2023-02-19T18:57:16.951Z,2.80
2023-02-19T18:59:45.152Z,2.80
2023-02-19T19:02:13.885Z,2.90
2023-02-19T19:04:42.069Z,3.13
2023-02-19T19:07:11.499Z,2.60
2023-02-19T19:09:39.965Z,3.07
2023-02-19T19:12:08.207Z,3.13
2023-02-19T19:14:36.393Z,3.20
2023-02-19T19:17:04.603Z,3.37
2023-02-19T19:19:32.745Z,3.30
2023-02-19T19:22:00.893Z,3.50
2023-02-19T19:24:30.416Z,3.53
2023-02-19T19:26:58.526Z,4.10
2023-02-19T19:29:26.931Z,4.80
2023-02-19T19:31:55.059Z,4.67
2023-02-19T19:34:23.183Z,4.00
2023-02-19T19:36:51.555Z,4.27
2023-02-19T19:39:19.663Z,4.23
2023-02-19T19:41:56.317Z,4.07
2023-02-19T19:44:24.452Z,4.40
2023-02-19T19:46:52.508Z,4.30
2023-02-19T19:49:21.040Z,4.63
2023-02-19T19:51:49.136Z,5.50
2023-02-19T19:54:17.227Z,5.37
2023-02-19T19:56:46.221Z,4.83
2023-02-19T19:59:16.392Z,4.43
2023-02-19T20:01:49.450Z,5.37
2023-02-19T20:04:18.235Z,5.80
2023-02-19T20:06:46.353Z,5.80
2023-02-19T20:09:14.438Z,5.87
2023-02-19T20:11:46.507Z,5.80
2023-02-19T20:14:16.002Z,6.80
2023-02-19T20:16:44.821Z,6.33
2023-02-19T20:19:13.028Z,5.93
2023-02-19T20:21:41.120Z,6.20
2023-02-19T20:24:09.322Z,6.13
2023-02-19T20:26:37.374Z,5.60
2023-02-19T20:29:07.066Z,5.93
2023-02-19T20:31:36.930Z,6.60
2023-02-19T20:34:05.076Z,6.40
2023-02-19T20:36:33.233Z,6.50
2023-02-19T20:39:01.406Z,5.40
2023-02-19T20:41:29.561Z,5.03
2023-02-19T20:43:57.651Z,4.83
2023-02-19T20:46:26.095Z,5.07
2023-02-19T20:48:55.571Z,4.83
2023-02-19T20:51:23.938Z,5.87
2023-02-19T20:53:52.025Z,5.63
2023-02-19T20:56:20.106Z,5.23
2023-02-19T20:58:48.513Z,5.10
2023-02-19T21:01:16.590Z,5.10
2023-02-19T21:03:44.670Z,5.20
2023-02-19T21:06:14.463Z,6.07
2023-02-19T21:08:42.639Z,5.37
2023-02-19T21:11:11.495Z,5.00
2023-02-19T21:13:39.964Z,5.43
2023-02-19T21:16:08.385Z,5.63
2023-02-19T21:18:36.453Z,5.47
2023-02-19T21:21:04.720Z,5.37
2023-02-19T21:23:34.181Z,5.27
2023-02-19T21:26:03.304Z,5.77
2023-02-19T21:28:31.406Z,5.40
2023-02-19T21:30:59.505Z,5.27
2023-02-19T21:33:27.577Z,5.77
2023-02-19T21:35:57.545Z,5.87
2023-02-19T21:38:26.029Z,5.90
2023-02-19T21:40:55.542Z,5.53
2023-02-19T21:43:23.618Z,5.30
2023-02-19T21:45:51.755Z,5.43
2023-02-19T21:48:19.967Z,6.30
2023-02-19T21:50:48.057Z,5.40
2023-02-19T21:53:16.561Z,6.30
2023-02-19T21:55:57.773Z,5.20
2023-02-19T21:58:28.078Z,5.40
2023-02-19T22:00:58.068Z,5.93
2023-02-19T22:03:26.681Z,5.70
2023-02-19T22:05:54.739Z,5.97
2023-02-19T22:08:23.267Z,5.80
2023-02-19T22:10:51.484Z,5.93
2023-02-19T22:13:19.554Z,6.67
2023-02-19T22:15:49.129Z,6.47
2023-02-19T22:18:17.165Z,5.33
2023-02-19T22:20:45.672Z,5.83
2023-02-19T22:23:13.766Z,5.90
2023-02-19T22:25:41.868Z,5.87
2023-02-19T22:28:09.948Z,6.00
2023-02-19T22:30:38.080Z,5.83
2023-02-19T22:33:07.836Z,5.30
2023-02-19T22:35:35.913Z,6.47
2023-02-19T22:38:04.055Z,6.63
2023-02-19T22:40:32.170Z,5.93
2023-02-19T22:43:00.275Z,6.60
2023-02-19T22:45:28.323Z,6.77
2023-02-19T22:47:56.770Z,6.67
2023-02-19T22:50:26.532Z,6.20
2023-02-19T22:52:55.582Z,6.77
2023-02-19T22:55:23.660Z,6.23
2023-02-19T22:57:51.790Z,6.43
2023-02-19T23:00:21.604Z,5.87
2023-02-19T23:02:49.760Z,5.43
2023-02-19T23:05:18.079Z,5.83
2023-02-19T23:07:47.536Z,6.27
2023-02-19T23:10:15.584Z,5.50
2023-02-19T23:12:43.716Z,5.37
2023-02-19T23:15:12.421Z,5.43
2023-02-19T23:17:40.467Z,5.60
2023-02-19T23:20:09.541Z,5.50
2023-02-19T23:22:37.589Z,6.07
2023-02-19T23:25:07.879Z,5.47
2023-02-19T23:27:35.957Z,5.43
2023-02-19T23:30:04.106Z,5.43
2023-02-19T23:32:32.165Z,6.00
2023-02-19T23:35:00.304Z,5.63
2023-02-19T23:37:28.376Z,6.00
2023-02-19T23:39:56.419Z,5.63
2023-02-19T23:42:26.200Z,4.93
2023-02-19T23:44:54.440Z,5.13
2023-02-19T23:47:23.019Z,5.60
2023-02-19T23:49:51.170Z,5.30
2023-02-19T23:52:19.273Z,5.10
2023-02-19T23:54:47.643Z,4.83
2023-02-19T23:57:15.801Z,4.80
2023-02-19T23:59:47.272Z,4.73
